Time;durP1;ratioP1;P1;durP2;ratioP2;P2;SDS_P1;SDS_P2;PMS_P1;PMS_P2;Temp;Humidity;BMP_temperature;BMP_pressure;BME280_temperature;BME280_humidity;BME280_pressure;Samples;Min_cycle;Max_cycle;Signal;HPM_P1;HPM_P2
2021/09/16 00:00:21;;;;;;;7.60;3.50;;;14.30;99.90;;;;;;5014752;28;20022;-79
2021/09/16 00:02:47;;;;;;;8.70;3.33;;;14.40;99.90;;;;;;5016790;28;20479;-79
2021/09/16 00:05:13;;;;;;;8.07;3.45;;;14.30;99.90;;;;;;5015649;28;20018;-79
2021/09/16 00:07:38;;;;;;;9.10;3.55;;;14.30;99.90;;;;;;5017047;28;20026;-79
2021/09/16 00:10:05;;;;;;;7.60;3.30;;;14.20;99.90;;;;;;5016175;28;20060;-79
2021/09/16 00:12:31;;;;;;;9.85;3.75;;;14.20;99.90;;;;;;5016014;28;20026;-79
2021/09/16 00:14:57;;;;;;;8.20;3.28;;;14.20;99.90;;;;;;5016951;28;20096;-79
2021/09/16 00:17:23;;;;;;;7.72;3.80;;;14.10;99.90;;;;;;5015622;28;20112;-79
2021/09/16 00:19:49;;;;;;;9.23;4.13;;;14.10;99.90;;;;;;5016540;28;20030;-79
2021/09/16 00:22:14;;;;;;;11.35;4.07;;;14.10;99.90;;;;;;5016996;28;20271;-79
2021/09/16 00:24:40;;;;;;;10.40;4.15;;;14.10;99.90;;;;;;5015684;28;20022;-79
2021/09/16 00:27:06;;;;;;;8.70;4.65;;;14.20;99.90;;;;;;5015144;28;20052;-79
2021/09/16 00:29:32;;;;;;;9.60;5.25;;;14.20;99.90;;;;;;5014319;28;20041;-79
2021/09/16 00:31:58;;;;;;;8.82;5.00;;;14.10;99.90;;;;;;5014733;28;20033;-79
2021/09/16 00:34:24;;;;;;;10.93;5.15;;;14.10;99.90;;;;;;5015038;28;20022;-79
2021/09/16 00:36:50;;;;;;;9.48;4.85;;;14.10;99.90;;;;;;5015100;28;20395;-79
2021/09/16 00:39:16;;;;;;;10.65;4.95;;;14.10;99.90;;;;;;5015579;28;20030;-79
2021/09/16 00:41:42;;;;;;;10.60;6.03;;;14.10;99.90;;;;;;5014899;28;20018;-79
2021/09/16 00:44:07;;;;;;;14.15;5.50;;;14.10;99.90;;;;;;5013692;28;20976;-79
2021/09/16 00:46:33;;;;;;;10.18;4.95;;;14.10;99.90;;;;;;5015131;28;20034;-79
2021/09/16 00:48:59;;;;;;;10.02;5.30;;;14.10;99.90;;;;;;5015969;28;20096;-79
2021/09/16 00:51:25;;;;;;;11.65;5.35;;;14.10;99.90;;;;;;5016695;28;20018;-79
2021/09/16 00:53:54;;;;;;;10.05;6.15;;;14.20;99.90;;;;;;5014560;28;20038;-79
2021/09/16 00:56:22;;;;;;;14.43;5.72;;;14.20;99.90;;;;;;5015378;28;20109;-79
2021/09/16 00:58:51;;;;;;;10.27;5.63;;;14.20;99.90;;;;;;5014589;28;20037;-79
2021/09/16 01:01:17;;;;;;;11.45;5.65;;;14.10;99.90;;;;;;5014881;28;20387;-79
2021/09/16 01:03:44;;;;;;;9.60;6.03;;;14.20;99.90;;;;;;5014480;28;20022;-78
2021/09/16 01:06:11;;;;;;;13.73;6.55;;;14.20;99.90;;;;;;5014739;28;20018;-79
2021/09/16 01:08:37;;;;;;;11.95;6.30;;;14.20;99.90;;;;;;5014581;28;20030;-79
2021/09/16 01:11:03;;;;;;;10.77;6.20;;;14.20;99.90;;;;;;5014196;28;20084;-79
2021/09/16 01:13:28;;;;;;;12.95;6.82;;;14.10;99.90;;;;;;5013807;28;20022;-79
2021/09/16 01:15:58;;;;;;;12.48;6.22;;;14.10;99.90;;;;;;5014030;28;20046;-79
2021/09/16 01:18:24;;;;;;;11.25;6.32;;;14.10;99.90;;;;;;5014824;28;20026;-79
2021/09/16 01:20:50;;;;;;;11.90;6.45;;;14.10;99.90;;;;;;5015816;28;20046;-79
2021/09/16 01:23:15;;;;;;;12.30;6.82;;;14.10;99.90;;;;;;5014677;28;20053;-79
2021/09/16 01:25:41;;;;;;;13.00;6.15;;;14.10;99.90;;;;;;5016002;28;20022;-79
2021/09/16 01:28:06;;;;;;;11.82;6.43;;;14.10;99.90;;;;;;5015398;28;20022;-78
2021/09/16 01:30:32;;;;;;;14.80;6.45;;;14.10;99.90;;;;;;5014000;28;20037;-79
2021/09/16 01:32:59;;;;;;;10.60;5.88;;;14.10;99.90;;;;;;5014219;28;20025;-79
2021/09/16 01:35:25;;;;;;;14.05;6.25;;;14.10;99.90;;;;;;5013824;28;20041;-79
2021/09/16 01:37:51;;;;;;;11.07;6.50;;;14.10;99.90;;;;;;5014005;28;20033;-79
2021/09/16 01:40:16;;;;;;;12.55;6.10;;;14.10;99.90;;;;;;5013936;28;20026;-79
2021/09/16 01:42:44;;;;;;;11.75;7.07;;;14.20;99.90;;;;;;5013153;28;20451;-79
2021/09/16 01:45:14;;;;;;;16.25;7.50;;;14.20;99.90;;;;;;5014929;28;20422;-79
2021/09/16 01:47:42;;;;;;;11.40;6.68;;;14.20;99.90;;;;;;5014843;28;20033;-79
2021/09/16 01:50:09;;;;;;;11.05;6.75;;;14.10;99.90;;;;;;5015178;28;20038;-79
2021/09/16 01:52:34;;;;;;;11.18;6.72;;;14.10;99.90;;;;;;5013530;28;20029;-79
2021/09/16 01:55:00;;;;;;;14.10;7.07;;;14.20;99.90;;;;;;5016482;28;20030;-79
2021/09/16 01:57:25;;;;;;;12.50;7.22;;;14.20;99.90;;;;;;5018631;28;20033;-79
2021/09/16 01:59:51;;;;;;;12.88;7.78;;;14.10;99.90;;;;;;5019643;28;20403;-79
2021/09/16 02:02:16;;;;;;;14.40;7.72;;;14.10;99.90;;;;;;5018017;28;20438;-79
2021/09/16 02:04:42;;;;;;;10.98;7.30;;;14.10;99.90;;;;;;5018867;28;20065;-79
2021/09/16 02:07:08;;;;;;;12.02;7.18;;;14.00;99.90;;;;;;5017718;28;20032;-79
2021/09/16 02:09:33;;;;;;;12.90;8.07;;;14.00;99.90;;;;;;5019199;28;20440;-79
2021/09/16 02:11:59;;;;;;;14.27;8.48;;;14.00;99.90;;;;;;5017976;28;20372;-79
2021/09/16 02:14:25;;;;;;;15.82;7.40;;;13.90;99.90;;;;;;5017083;28;20033;-79
2021/09/16 02:16:50;;;;;;;11.35;8.38;;;14.00;99.90;;;;;;5017815;28;20527;-79
2021/09/16 02:19:16;;;;;;;12.70;7.50;;;14.10;99.90;;;;;;5019000;28;20051;-79
2021/09/16 02:21:42;;;;;;;9.02;7.43;;;14.20;99.90;;;;;;5017380;28;20018;-79
2021/09/16 02:24:08;;;;;;;10.93;7.80;;;14.40;99.90;;;;;;5017585;28;20057;-79
2021/09/16 02:26:34;;;;;;;13.27;7.65;;;14.30;99.90;;;;;;5017818;28;20026;-79
2021/09/16 02:29:00;;;;;;;14.30;7.43;;;14.40;99.90;;;;;;5019052;28;20211;-78
2021/09/16 02:31:25;;;;;;;10.88;7.22;;;14.40;99.90;;;;;;5018259;28;20479;-79
2021/09/16 02:33:51;;;;;;;14.57;7.72;;;14.50;99.90;;;;;;5018316;28;20057;-78
2021/09/16 02:36:17;;;;;;;13.85;7.18;;;14.60;99.90;;;;;;5016956;28;20025;-79
2021/09/16 02:38:42;;;;;;;14.68;7.68;;;14.60;99.90;;;;;;5016606;28;20032;-79
2021/09/16 02:41:08;;;;;;;14.45;7.78;;;14.70;99.90;;;;;;5017986;28;20044;-79
2021/09/16 02:43:34;;;;;;;15.13;8.02;;;14.70;99.90;;;;;;5016927;28;20116;-79
2021/09/16 02:45:59;;;;;;;15.10;8.32;;;14.80;99.90;;;;;;5018134;28;20479;-79
2021/09/16 02:48:25;;;;;;;16.70;8.77;;;14.80;99.90;;;;;;5018129;28;20041;-78
2021/09/16 02:50:50;;;;;;;14.80;9.00;;;14.80;99.90;;;;;;5015807;28;20510;-78
2021/09/16 02:53:16;;;;;;;13.68;8.57;;;14.80;99.90;;;;;;5016057;28;20053;-78
2021/09/16 02:55:42;;;;;;;15.52;8.85;;;14.70;99.90;;;;;;5015991;28;20510;-79
2021/09/16 02:58:08;;;;;;;14.32;8.13;;;14.70;99.90;;;;;;5015627;28;20117;-79
2021/09/16 03:00:33;;;;;;;16.13;8.70;;;14.60;99.90;;;;;;5016327;28;20088;-79
2021/09/16 03:02:59;;;;;;;15.55;8.20;;;14.60;99.90;;;;;;5016115;28;20025;-78
2021/09/16 03:05:25;;;;;;;18.52;8.45;;;14.60;99.90;;;;;;5015102;28;20030;-79
2021/09/16 03:07:50;;;;;;;13.65;8.73;;;14.50;99.90;;;;;;5015115;28;20133;-79
2021/09/16 03:10:16;;;;;;;14.73;9.55;;;14.50;99.90;;;;;;5016111;28;20076;-79
2021/09/16 03:12:42;;;;;;;16.90;9.00;;;14.50;99.90;;;;;;5016268;28;20029;-79
2021/09/16 03:15:09;;;;;;;14.18;8.80;;;14.40;99.90;;;;;;5016261;28;20026;-79
2021/09/16 03:17:34;;;;;;;12.77;8.43;;;14.50;99.90;;;;;;5016017;28;20034;-79
2021/09/16 03:20:00;;;;;;;16.45;8.70;;;14.50;99.90;;;;;;5015518;28;20029;-78
2021/09/16 03:22:26;;;;;;;15.60;9.25;;;14.50;99.90;;;;;;5015542;28;20026;-78
2021/09/16 03:24:51;;;;;;;14.25;8.60;;;14.60;99.90;;;;;;5015229;28;20026;-78
2021/09/16 03:27:17;;;;;;;13.32;8.95;;;14.60;99.90;;;;;;5016309;28;20042;-78
2021/09/16 03:29:42;;;;;;;14.15;8.23;;;14.60;99.90;;;;;;5014327;28;20030;-78
2021/09/16 03:32:08;;;;;;;13.85;7.80;;;14.60;99.90;;;;;;5015176;28;20033;-78
2021/09/16 03:34:34;;;;;;;13.90;8.13;;;14.60;99.90;;;;;;5014998;28;20026;-78
2021/09/16 03:36:59;;;;;;;14.52;8.65;;;14.60;99.90;;;;;;5015423;28;20037;-78
2021/09/16 03:39:25;;;;;;;12.65;8.18;;;14.60;99.90;;;;;;5015554;28;20049;-78
2021/09/16 03:41:51;;;;;;;11.38;8.25;;;14.60;99.90;;;;;;5017088;28;20032;-78
2021/09/16 03:44:16;;;;;;;14.38;8.30;;;14.60;99.90;;;;;;5015977;28;20033;-78
2021/09/16 03:46:42;;;;;;;13.77;7.70;;;14.50;99.90;;;;;;5016500;28;20032;-78
2021/09/16 03:49:08;;;;;;;14.00;8.25;;;14.40;99.90;;;;;;5017011;28;20344;-79
2021/09/16 03:51:33;;;;;;;16.67;8.93;;;14.40;99.90;;;;;;5016012;28;20077;-78
2021/09/16 03:53:59;;;;;;;15.13;8.95;;;14.30;99.90;;;;;;5015988;28;20034;-79
2021/09/16 03:56:24;;;;;;;17.60;9.38;;;14.30;99.90;;;;;;5015778;28;20471;-79
2021/09/16 03:58:50;;;;;;;13.23;9.43;;;14.30;99.90;;;;;;5015148;28;20033;-78
2021/09/16 04:01:16;;;;;;;15.38;9.73;;;14.30;99.90;;;;;;5015011;28;20022;-78
2021/09/16 04:03:41;;;;;;;18.30;10.00;;;14.20;99.90;;;;;;5016375;28;20390;-79
2021/09/16 04:06:08;;;;;;;13.38;8.68;;;14.20;99.90;;;;;;5015284;28;20022;-78
2021/09/16 04:08:33;;;;;;;13.88;9.23;;;14.20;99.90;;;;;;5015330;28;20036;-78
2021/09/16 04:10:59;;;;;;;17.40;9.07;;;14.10;99.90;;;;;;5016155;28;20034;-79
2021/09/16 04:13:24;;;;;;;16.63;9.10;;;14.10;99.90;;;;;;5016496;28;20029;-80
2021/09/16 04:15:50;;;;;;;14.88;9.25;;;14.20;99.90;;;;;;5016184;28;20061;-79
2021/09/16 04:18:16;;;;;;;14.85;9.05;;;14.30;99.90;;;;;;5014128;28;20036;-79
2021/09/16 04:20:41;;;;;;;17.75;9.95;;;14.50;99.90;;;;;;5016432;28;20030;-79
2021/09/16 04:23:07;;;;;;;15.90;9.30;;;14.50;99.90;;;;;;5016861;28;20364;-79
2021/09/16 04:25:33;;;;;;;14.32;8.88;;;14.60;99.90;;;;;;5016392;28;20391;-79
2021/09/16 04:27:58;;;;;;;11.10;8.38;;;14.60;99.90;;;;;;5015958;28;20034;-78
2021/09/16 04:30:24;;;;;;;13.57;8.65;;;14.60;99.90;;;;;;5016961;28;20034;-79
2021/09/16 04:32:50;;;;;;;11.80;8.32;;;14.70;99.90;;;;;;5016774;28;20037;-78
2021/09/16 04:35:15;;;;;;;16.33;8.98;;;14.60;99.90;;;;;;5016631;28;20032;-78
2021/09/16 04:37:41;;;;;;;15.45;8.75;;;14.70;99.90;;;;;;5014106;28;20037;-78
2021/09/16 04:40:07;;;;;;;17.33;8.15;;;14.60;99.90;;;;;;5015796;28;20018;-79
2021/09/16 04:42:33;;;;;;;15.85;8.60;;;14.60;99.90;;;;;;5015417;28;20026;-78
2021/09/16 04:44:59;;;;;;;15.95;8.05;;;14.60;99.90;;;;;;5015534;28;20085;-78
2021/09/16 04:47:25;;;;;;;18.30;7.60;;;14.60;99.90;;;;;;5014124;28;20057;-78
2021/09/16 04:49:50;;;;;;;17.50;7.93;;;14.60;99.90;;;;;;5014405;28;20040;-78
2021/09/16 04:52:16;;;;;;;14.57;8.30;;;14.60;99.90;;;;;;5015154;28;20097;-78
2021/09/16 04:54:42;;;;;;;12.65;7.32;;;14.70;99.90;;;;;;5013186;28;20103;-78
2021/09/16 04:57:08;;;;;;;13.23;7.85;;;14.70;99.90;;;;;;5014006;28;20437;-78
2021/09/16 04:59:33;;;;;;;11.88;7.25;;;14.70;99.90;;;;;;5015290;28;20026;-78
2021/09/16 05:01:59;;;;;;;13.50;7.13;;;14.80;99.90;;;;;;5014366;28;20037;-78
2021/09/16 05:04:25;;;;;;;13.02;7.40;;;14.80;99.90;;;;;;5014719;28;20026;-78
2021/09/16 05:06:50;;;;;;;18.33;7.93;;;14.80;99.90;;;;;;5016551;28;20527;-78
2021/09/16 05:09:16;;;;;;;13.65;8.10;;;14.80;99.90;;;;;;5015301;28;20053;-78
2021/09/16 05:11:42;;;;;;;15.13;8.00;;;14.80;99.90;;;;;;5015850;28;20052;-78
2021/09/16 05:14:12;;;;;;;13.75;8.20;;;14.90;99.90;;;;;;5019365;28;20022;-78
2021/09/16 05:16:38;;;;;;;16.58;8.30;;;14.90;99.90;;;;;;5018074;28;20029;-78
2021/09/16 05:19:04;;;;;;;16.52;8.95;;;15.00;99.90;;;;;;5017797;28;20454;-79
2021/09/16 05:21:30;;;;;;;18.23;10.20;;;15.00;99.90;;;;;;5019154;28;20030;-79
2021/09/16 05:23:56;;;;;;;21.10;10.93;;;15.00;99.90;;;;;;5017988;28;20057;-78
2021/09/16 05:26:22;;;;;;;20.58;11.90;;;15.00;99.90;;;;;;5014830;28;20033;-79
2021/09/16 05:28:47;;;;;;;27.77;13.27;;;15.00;99.90;;;;;;5013321;28;20116;-78
2021/09/16 05:31:13;;;;;;;21.35;12.80;;;15.00;99.90;;;;;;5013261;28;20514;-78
2021/09/16 05:33:39;;;;;;;27.65;13.55;;;15.10;99.90;;;;;;5014966;28;20034;-78
2021/09/16 05:36:05;;;;;;;25.98;17.80;;;15.10;99.90;;;;;;5014773;28;20080;-78
2021/09/16 05:38:31;;;;;;;52.28;41.28;;;15.00;99.90;;;;;;5015201;28;20018;-78
2021/09/16 05:40:57;;;;;;;50.90;38.55;;;15.00;99.90;;;;;;5014327;28;20076;-79
2021/09/16 05:43:23;;;;;;;57.90;47.53;;;14.80;99.90;;;;;;5010670;28;20030;-79
2021/09/16 05:45:50;;;;;;;16.67;14.18;;;14.80;99.90;;;;;;5012131;28;20038;-79
2021/09/16 05:48:16;;;;;;;18.15;13.57;;;14.60;99.90;;;;;;5013840;28;20038;-78
2021/09/16 05:50:42;;;;;;;14.82;11.27;;;14.40;99.90;;;;;;4994491;28;20506;-79
2021/09/16 05:53:10;;;;;;;11.95;9.43;;;14.20;99.90;;;;;;5005064;28;20046;-79
2021/09/16 05:55:39;;;;;;;14.30;9.10;;;14.10;99.90;;;;;;5014696;28;20072;-81
2021/09/16 05:58:05;;;;;;;13.95;9.85;;;13.80;99.90;;;;;;5016550;28;20038;-81
2021/09/16 06:00:31;;;;;;;16.55;9.70;;;13.60;99.90;;;;;;5012973;28;20022;-79
2021/09/16 06:02:57;;;;;;;14.18;10.15;;;13.70;99.90;;;;;;5007086;28;20084;-79
2021/09/16 06:05:23;;;;;;;17.77;11.20;;;13.70;99.90;;;;;;5014137;28;20510;-81
2021/09/16 06:07:49;;;;;;;18.88;11.23;;;13.70;99.90;;;;;;5014002;28;20060;-80
2021/09/16 06:10:15;;;;;;;18.63;10.60;;;13.80;99.90;;;;;;5018192;28;20394;-83
2021/09/16 06:12:41;;;;;;;22.50;11.55;;;13.80;99.90;;;;;;5008976;28;20068;-81
2021/09/16 06:15:08;;;;;;;19.85;11.32;;;13.80;99.90;;;;;;5009477;28;20033;-83
2021/09/16 06:17:34;;;;;;;25.70;14.80;;;13.80;99.90;;;;;;5007726;28;20038;-83
2021/09/16 06:20:00;;;;;;;30.52;19.27;;;14.10;99.90;;;;;;5004832;28;20342;-83
2021/09/16 06:22:26;;;;;;;43.17;26.20;;;14.50;99.90;;;;;;5006644;28;20029;-83
2021/09/16 06:24:53;;;;;;;51.30;30.02;;;14.70;99.90;;;;;;5008458;28;20026;-81
2021/09/16 06:27:19;;;;;;;49.47;29.23;;;14.90;99.90;;;;;;4995608;28;20141;-81
2021/09/16 06:29:48;;;;;;;49.50;29.90;;;15.10;99.90;;;;;;5001792;28;20022;-85
2021/09/16 06:32:15;;;;;;;46.05;29.80;;;15.30;99.90;;;;;;5011519;28;20035;-89
2021/09/16 06:34:41;;;;;;;48.63;32.22;;;15.40;99.90;;;;;;5012297;28;20023;-82
2021/09/16 06:37:07;;;;;;;50.55;31.05;;;15.40;99.90;;;;;;4991960;28;20482;-78
2021/09/16 06:39:33;;;;;;;48.47;30.83;;;15.50;99.90;;;;;;5000388;28;20122;-78
2021/09/16 06:41:59;;;;;;;46.20;31.45;;;15.60;99.90;;;;;;5000477;28;20058;-78
2021/09/16 06:44:24;;;;;;;44.75;30.40;;;15.60;99.90;;;;;;5011524;28;20081;-79
2021/09/16 06:46:50;;;;;;;46.95;30.23;;;15.60;99.90;;;;;;4984778;28;20030;-79
2021/09/16 06:49:16;;;;;;;48.05;31.05;;;15.70;99.90;;;;;;5007817;28;20487;-80
2021/09/16 06:51:42;;;;;;;46.72;30.80;;;15.80;99.90;;;;;;4996523;28;20069;-79
2021/09/16 06:54:08;;;;;;;45.15;32.38;;;16.00;99.90;;;;;;5010408;28;20046;-79
2021/09/16 06:56:34;;;;;;;51.03;31.15;;;16.00;99.90;;;;;;5012113;28;20024;-79
2021/09/16 06:59:00;;;;;;;51.58;33.60;;;16.20;99.90;;;;;;5006296;28;20557;-79
2021/09/16 07:01:26;;;;;;;40.90;28.92;;;16.30;99.90;;;;;;5006990;28;20022;-78
2021/09/16 07:03:52;;;;;;;45.08;30.02;;;16.40;99.90;;;;;;5011923;28;20525;-79
2021/09/16 07:06:19;;;;;;;44.92;28.58;;;16.60;99.90;;;;;;5001796;28;20026;-79
2021/09/16 07:08:44;;;;;;;42.00;28.80;;;16.70;99.90;;;;;;5006898;28;20368;-79
2021/09/16 07:11:11;;;;;;;42.17;28.35;;;16.70;99.90;;;;;;5015746;28;20053;-79
2021/09/16 07:13:37;;;;;;;41.85;27.77;;;16.80;99.90;;;;;;5016984;28;20029;-79
2021/09/16 07:16:03;;;;;;;39.45;26.42;;;16.90;99.90;;;;;;5000696;28;20395;-79
2021/09/16 07:18:31;;;;;;;39.13;26.70;;;17.00;99.90;;;;;;5010221;28;20113;-79
2021/09/16 07:20:56;;;;;;;34.47;25.05;;;17.10;99.90;;;;;;5011561;28;20026;-79
2021/09/16 07:23:22;;;;;;;38.47;25.15;;;17.20;99.90;;;;;;5001994;28;20552;-79
2021/09/16 07:25:54;;;;;;;34.58;24.33;;;17.30;99.90;;;;;;5002976;28;20725;-79
2021/09/16 07:28:20;;;;;;;33.53;22.80;;;17.30;99.90;;;;;;5006809;28;20030;-78
2021/09/16 07:30:46;;;;;;;35.13;23.38;;;17.30;99.90;;;;;;5009270;28;20045;-78
2021/09/16 07:33:12;;;;;;;38.97;23.80;;;17.40;99.90;;;;;;5009761;28;20030;-78
2021/09/16 07:35:38;;;;;;;33.75;22.77;;;17.70;99.90;;;;;;5001947;28;20073;-79
2021/09/16 07:38:05;;;;;;;30.27;22.05;;;17.60;99.90;;;;;;5006727;28;20515;-80
2021/09/16 07:40:31;;;;;;;30.77;21.98;;;17.80;99.90;;;;;;5009061;28;20506;-78
2021/09/16 07:42:57;;;;;;;27.45;19.85;;;18.20;99.90;;;;;;5009890;28;20497;-79
2021/09/16 07:45:23;;;;;;;23.55;18.17;;;19.20;99.90;;;;;;4998699;28;20030;-77
2021/09/16 07:47:49;;;;;;;22.83;17.35;;;20.30;99.90;;;;;;5008081;28;20030;-78
2021/09/16 07:50:15;;;;;;;21.05;16.80;;;21.40;99.90;;;;;;5007888;28;20113;-78
2021/09/16 07:52:40;;;;;;;22.00;15.68;;;22.70;99.90;;;;;;5024959;28;20038;-79
2021/09/16 07:55:07;;;;;;;18.05;15.18;;;23.70;99.90;;;;;;5003949;28;20057;-78
2021/09/16 07:57:32;;;;;;;19.30;15.63;;;23.90;99.90;;;;;;5008866;28;20045;-78
2021/09/16 07:59:58;;;;;;;19.25;14.80;;;24.70;99.90;;;;;;5007960;28;20478;-79
2021/09/16 08:02:24;;;;;;;17.98;14.10;;;24.90;99.90;;;;;;5009461;28;20036;-77
2021/09/16 08:04:50;;;;;;;17.63;13.57;;;25.50;99.90;;;;;;4997803;28;20442;-78
2021/09/16 08:07:16;;;;;;;21.70;13.68;;;25.60;99.90;;;;;;5003681;28;20082;-86
2021/09/16 08:09:41;;;;;;;15.95;12.60;;;25.60;99.90;;;;;;5020455;28;20029;-83
2021/09/16 08:12:07;;;;;;;15.55;12.65;;;25.70;99.90;;;;;;5004828;28;20029;-81
2021/09/16 08:14:33;;;;;;;18.05;11.02;;;25.70;99.90;;;;;;5003067;28;20108;-82
2021/09/16 08:16:59;;;;;;;14.93;11.63;;;25.30;99.90;;;;;;5009476;28;20026;-82
2021/09/16 08:19:25;;;;;;;14.57;11.88;;;25.60;99.90;;;;;;5011089;28;20025;-83
2021/09/16 08:21:50;;;;;;;18.50;11.45;;;25.50;99.90;;;;;;5008147;28;20080;-83
2021/09/16 08:24:16;;;;;;;17.40;11.63;;;25.80;99.90;;;;;;5015162;28;20471;-82
2021/09/16 08:26:43;;;;;;;13.43;11.32;;;26.10;99.90;;;;;;4999794;28;20101;-83
2021/09/16 08:29:10;;;;;;;16.80;11.95;;;26.30;99.90;;;;;;5013861;28;20030;-85
2021/09/16 08:31:35;;;;;;;15.63;11.48;;;26.30;99.90;;;;;;5006457;28;20026;-79
2021/09/16 08:34:01;;;;;;;16.35;11.48;;;26.70;99.90;;;;;;5000753;28;20030;-77
2021/09/16 08:36:27;;;;;;;16.15;11.52;;;26.90;99.90;;;;;;4998351;28;20030;-78
2021/09/16 08:38:53;;;;;;;11.88;9.88;;;26.70;99.90;;;;;;5000922;28;20034;-77
2021/09/16 08:41:19;;;;;;;13.38;10.73;;;26.60;99.90;;;;;;4989490;28;20029;-77
2021/09/16 08:43:48;;;;;;;11.98;10.02;;;25.90;99.90;;;;;;5006230;28;20025;-78
2021/09/16 08:46:14;;;;;;;14.43;11.25;;;25.80;99.90;;;;;;5003346;28;20021;-78
2021/09/16 08:48:40;;;;;;;13.93;9.55;;;25.80;99.90;;;;;;5007192;28;20034;-78
2021/09/16 08:51:06;;;;;;;13.82;10.02;;;26.30;99.90;;;;;;4994870;28;21010;-78
2021/09/16 08:53:32;;;;;;;16.23;9.98;;;26.30;99.90;;;;;;5001538;28;20113;-78
2021/09/16 08:56:01;;;;;;;14.60;10.00;;;26.20;99.90;;;;;;4995829;28;20033;-78
2021/09/16 08:58:28;;;;;;;15.23;9.93;;;26.20;99.90;;;;;;5019394;28;20041;-78
2021/09/16 09:00:55;;;;;;;12.73;10.20;;;26.80;99.90;;;;;;5003113;28;20036;-78
2021/09/16 09:03:21;;;;;;;11.07;9.45;;;26.60;99.90;;;;;;5007014;28;20089;-78
2021/09/16 09:05:47;;;;;;;12.38;10.18;;;26.20;99.90;;;;;;5008162;28;20137;-79
2021/09/16 09:08:13;;;;;;;12.60;9.20;;;25.50;99.90;;;;;;5010598;28;20403;-79
2021/09/16 09:10:43;;;;;;;11.98;9.45;;;25.70;99.90;;;;;;5005278;28;20029;-78
2021/09/16 09:13:11;;;;;;;12.07;8.90;;;26.30;99.90;;;;;;5005344;28;20116;-79
2021/09/16 09:15:39;;;;;;;9.80;7.85;;;26.10;99.90;;;;;;5005878;28;20100;-78
2021/09/16 09:18:05;;;;;;;9.35;7.20;;;26.20;99.90;;;;;;5002618;28;20064;-78
2021/09/16 09:20:32;;;;;;;9.55;7.65;;;26.20;99.10;;;;;;4994880;28;20050;-77
2021/09/16 09:22:58;;;;;;;8.40;6.32;;;26.60;98.50;;;;;;5001169;28;20583;-78
2021/09/16 09:25:25;;;;;;;11.10;8.20;;;26.50;97.30;;;;;;5012039;28;20052;-79
2021/09/16 09:27:55;;;;;;;9.95;7.90;;;26.30;98.70;;;;;;5004295;28;20483;-78
2021/09/16 09:30:31;;;;;;;8.02;6.85;;;27.00;98.00;;;;;;5008681;28;20420;-78
2021/09/16 09:33:00;;;;;;;7.03;5.47;;;26.70;96.70;;;;;;5007914;28;20505;-79
2021/09/16 09:35:36;;;;;;;8.55;5.57;;;26.70;95.80;;;;;;5005463;28;20175;-79
2021/09/16 09:38:16;;;;;;;6.65;4.95;;;26.20;96.10;;;;;;5007088;28;20621;-79
2021/09/16 09:40:44;;;;;;;7.03;5.75;;;25.80;96.40;;;;;;5002634;28;20494;-78
2021/09/16 09:43:28;;;;;;;5.30;4.10;;;25.70;97.40;;;;;;5004392;28;20018;-78
2021/09/16 09:46:15;;;;;;;4.07;3.45;;;26.10;96.10;;;;;;5009766;28;20060;-78
2021/09/16 09:48:42;;;;;;;8.85;4.10;;;26.20;94.80;;;;;;5010314;28;20076;-78
2021/09/16 09:51:09;;;;;;;6.47;4.75;;;26.10;94.70;;;;;;4996573;28;20030;-78
2021/09/16 09:53:43;;;;;;;6.78;5.43;;;26.20;95.00;;;;;;5004133;28;20081;-78
2021/09/16 09:56:19;;;;;;;6.25;5.65;;;26.50;94.50;;;;;;5004613;28;20434;-77
2021/09/16 09:58:46;;;;;;;5.00;4.15;;;27.20;94.30;;;;;;5012837;28;20026;-79
2021/09/16 10:01:26;;;;;;;4.90;3.50;;;27.60;92.10;;;;;;5003313;28;20037;-78
2021/09/16 10:03:52;;;;;;;3.53;3.20;;;27.20;91.10;;;;;;5006816;28;20044;-80
2021/09/16 10:06:18;;;;;;;3.47;3.15;;;27.10;90.80;;;;;;5004034;28;20026;-79
2021/09/16 10:09:09;;;;;;;4.25;2.67;;;27.20;90.10;;;;;;5003899;28;20029;-79
2021/09/16 10:11:57;;;;;;;3.30;2.60;;;27.60;87.10;;;;;;5001613;28;20477;-79
2021/09/16 10:14:23;;;;;;;5.15;4.00;;;27.90;86.00;;;;;;5005457;28;20037;-79
2021/09/16 10:16:49;;;;;;;9.40;6.57;;;28.00;87.90;;;;;;5014992;28;20040;-80
2021/09/16 10:19:15;;;;;;;8.23;6.50;;;28.10;90.40;;;;;;5014430;28;20128;-78
2021/09/16 10:21:42;;;;;;;8.60;5.88;;;28.00;91.30;;;;;;5008845;28;20398;-81
2021/09/16 10:24:13;;;;;;;8.48;5.78;;;28.90;90.50;;;;;;4999038;28;20057;-81
2021/09/16 10:26:45;;;;;;;12.35;5.28;;;28.40;90.00;;;;;;4989876;28;20552;-85
2021/09/16 10:29:36;;;;;;;8.27;5.57;;;28.80;88.20;;;;;;5018394;28;20076;-80
2021/09/16 10:32:07;;;;;;;11.77;6.90;;;28.40;89.70;;;;;;5008546;28;20033;-81
2021/09/16 10:34:41;;;;;;;10.77;6.07;;;28.40;89.90;;;;;;5016612;28;20032;-82
2021/09/16 10:37:12;;;;;;;9.52;6.47;;;28.50;90.00;;;;;;5016498;28;20026;-83
2021/09/16 10:39:39;;;;;;;14.52;6.90;;;28.20;89.40;;;;;;4997592;28;20495;-81
2021/09/16 10:42:06;;;;;;;10.25;6.82;;;27.80;90.20;;;;;;5011874;28;20029;-82
2021/09/16 10:44:32;;;;;;;19.70;7.45;;;28.10;90.30;;;;;;5015364;28;20057;-84
2021/09/16 10:47:23;;;;;;;16.25;7.03;;;28.00;90.10;;;;;;5018693;28;20034;-85
2021/09/16 10:49:51;;;;;;;16.75;7.38;;;26.80;91.60;;;;;;5011364;28;20032;-83
2021/09/16 10:52:23;;;;;;;12.77;6.63;;;26.70;92.50;;;;;;5014321;28;20038;-81
2021/09/16 10:54:54;;;;;;;17.00;7.00;;;27.50;91.50;;;;;;5020372;28;20096;-82
2021/09/16 10:57:31;;;;;;;8.82;6.10;;;27.90;90.30;;;;;;5015879;28;20201;-86
2021/09/16 11:00:01;;;;;;;8.45;4.50;;;28.00;89.30;;;;;;5007396;28;20026;-82
2021/09/16 11:02:39;;;;;;;21.60;4.70;;;28.20;90.00;;;;;;5011712;28;20026;-84
2021/09/16 11:05:10;;;;;;;11.68;5.13;;;29.30;86.60;;;;;;5035198;28;20030;-82
2021/09/16 11:07:39;;;;;;;5.78;5.28;;;29.60;84.50;;;;;;5001671;28;20058;-85
2021/09/16 11:10:16;;;;;;;6.07;4.50;;;30.30;83.70;;;;;;5013236;28;20046;-80
2021/09/16 11:13:25;;;;;;;7.22;5.40;;;30.40;82.60;;;;;;4987194;28;20717;-78
2021/09/16 11:15:54;;;;;;;6.47;4.85;;;31.00;80.20;;;;;;5000285;28;20387;-80
2021/09/16 11:18:21;;;;;;;6.80;4.85;;;30.30;80.50;;;;;;5024950;28;20285;-79
2021/09/16 11:20:53;;;;;;;6.53;5.20;;;29.60;82.20;;;;;;4993079;28;20026;-78
2021/09/16 11:23:18;;;;;;;6.47;4.50;;;29.90;81.00;;;;;;5006603;28;20029;-79
2021/09/16 11:25:47;;;;;;;4.70;4.22;;;30.30;79.10;;;;;;5000765;28;20030;-79
2021/09/16 11:28:13;;;;;;;5.57;4.43;;;29.80;80.10;;;;;;5004938;28;20045;-79
2021/09/16 11:30:41;;;;;;;6.32;4.88;;;29.90;81.30;;;;;;5002909;28;20029;-78
2021/09/16 11:33:13;;;;;;;8.38;5.13;;;30.00;78.70;;;;;;5012638;28;20026;-78
2021/09/16 11:35:40;;;;;;;5.30;4.80;;;29.00;81.20;;;;;;5012469;28;20199;-85
2021/09/16 11:38:07;;;;;;;7.28;5.35;;;28.20;84.20;;;;;;5011883;28;20088;-79
2021/09/16 11:40:35;;;;;;;6.95;5.20;;;27.90;84.60;;;;;;5015374;28;20026;-79
2021/09/16 11:43:06;;;;;;;5.82;5.22;;;27.30;86.20;;;;;;4998282;28;20049;-79
2021/09/16 11:45:34;;;;;;;6.53;5.33;;;26.40;90.00;;;;;;5014884;28;21079;-79
2021/09/16 11:48:05;;;;;;;7.18;6.03;;;25.80;91.00;;;;;;5010943;28;20256;-78
2021/09/16 11:50:49;;;;;;;7.60;6.20;;;25.40;92.40;;;;;;5014746;28;20022;-85
2021/09/16 11:53:34;;;;;;;7.88;5.68;;;25.10;93.00;;;;;;5006541;28;20137;-78
2021/09/16 11:56:10;;;;;;;12.45;6.60;;;26.20;92.30;;;;;;5007944;28;20045;-81
2021/09/16 11:58:39;;;;;;;22.77;7.20;;;27.20;91.40;;;;;;4997579;28;20181;-83
2021/09/16 12:01:14;;;;;;;14.93;7.18;;;28.00;89.80;;;;;;5007339;28;20028;-82
2021/09/16 12:03:42;;;;;;;11.10;7.22;;;29.50;86.10;;;;;;5012058;28;20022;-79
2021/09/16 12:06:15;;;;;;;10.02;6.18;;;30.50;81.50;;;;;;4994622;28;20018;-79
2021/09/16 12:08:50;;;;;;;8.63;5.45;;;30.40;80.90;;;;;;4999388;28;20030;-81
2021/09/16 12:11:21;;;;;;;14.82;6.35;;;31.50;78.10;;;;;;5007966;28;20080;-82
2021/09/16 12:13:47;;;;;;;7.43;5.93;;;31.00;78.10;;;;;;5006899;28;20073;-83
2021/09/16 12:16:39;;;;;;;6.65;5.45;;;30.40;78.50;;;;;;5000550;28;20517;-80
2021/09/16 12:19:23;;;;;;;5.32;4.90;;;29.90;79.40;;;;;;5003852;28;20049;-82
2021/09/16 12:21:54;;;;;;;6.10;5.40;;;28.70;81.70;;;;;;5009161;28;20022;-79
2021/09/16 12:24:29;;;;;;;6.55;5.45;;;29.10;84.20;;;;;;4990733;28;20491;-78
2021/09/16 12:26:56;;;;;;;4.40;3.95;;;30.20;79.00;;;;;;5006171;28;20033;-78
2021/09/16 12:29:25;;;;;;;8.30;4.68;;;30.60;77.40;;;;;;5007289;28;20375;-77
2021/09/16 12:31:57;;;;;;;6.43;4.47;;;30.90;76.90;;;;;;5002988;28;20051;-79
2021/09/16 12:34:23;;;;;;;;;;;30.00;78.20;;;;;;4995854;28;20052;-78
2021/09/16 12:36:54;;;;;;;5.80;4.90;;;29.20;80.70;;;;;;5004237;28;19909;-78